Time;durP1;ratioP1;P1;durP2;ratioP2;P2;SDS_P1;SDS_P2;PMS_P1;PMS_P2;Temp;Humidity;BMP_temperature;BMP_pressure;BME280_temperature;BME280_humidity;BME280_pressure;Samples;Min_cycle;Max_cycle;Signal;HPM_P1;HPM_P2
2021/10/29 00:01:40;;;;;;;0.15;0.15;;;;;;;;;;5095266;28;20036;-85
2021/10/29 00:04:05;;;;;;;0.40;0.40;;;;;;;;;;5095110;28;20027;-85
2021/10/29 00:06:30;;;;;;;0.43;0.43;;;;;;;;;;5095193;28;20380;-85
2021/10/29 00:08:56;;;;;;;0.75;0.75;;;;;;;;;;5093526;28;20047;-86
2021/10/29 00:11:21;;;;;;;3.70;1.60;;;;;;;;;;5094898;28;20023;-86
2021/10/29 00:13:46;;;;;;;0.00;0.00;;;;;;;;;;5094915;28;20445;-86
2021/10/29 00:16:12;;;;;;;0.08;0.08;;;;;;;;;;5094795;28;20040;-85
2021/10/29 00:18:37;;;;;;;0.00;0.00;;;;;;;;;;5095062;28;20016;-85
2021/10/29 00:21:02;;;;;;;0.00;0.00;;;;;;;;;;5094881;28;20452;-86
2021/10/29 00:23:30;;;;;;;0.90;0.90;;;;;;;;;;5094820;28;20109;-86
2021/10/29 00:25:56;;;;;;;0.30;0.30;;;;;;;;;;5094736;28;20020;-86
2021/10/29 00:28:21;;;;;;;0.00;0.00;;;;;;;;;;5094773;28;20021;-85
2021/10/29 00:30:46;;;;;;;0.20;0.20;;;;;;;;;;5094680;28;20538;-86
2021/10/29 00:33:11;;;;;;;0.00;0.00;;;;;;;;;;5093309;28;20024;-86
2021/10/29 00:35:37;;;;;;;0.00;0.00;;;;;;;;;;5094590;28;20522;-86
2021/10/29 00:38:02;;;;;;;0.03;0.03;;;;;;;;;;5094544;28;20028;-86
2021/10/29 00:40:28;;;;;;;0.55;0.55;;;;;;;;;;5094540;28;20024;-85
2021/10/29 00:42:53;;;;;;;0.08;0.08;;;;;;;;;;5094548;28;20020;-86
2021/10/29 00:45:19;;;;;;;0.00;0.00;;;;;;;;;;5093987;28;20062;-85
2021/10/29 00:47:44;;;;;;;10.15;0.80;;;;;;;;;;5094391;28;20456;-85
2021/10/29 00:50:11;;;;;;;0.00;0.00;;;;;;;;;;5094084;28;20063;-86
2021/10/29 00:52:36;;;;;;;0.00;0.00;;;;;;;;;;5094060;28;20497;-84
2021/10/29 00:55:02;;;;;;;1.65;0.15;;;;;;;;;;5094131;28;20020;-86
2021/10/29 00:57:27;;;;;;;0.00;0.00;;;;;;;;;;5094177;28;20028;-85
2021/10/29 00:59:52;;;;;;;0.00;0.00;;;;;;;;;;5093015;28;20032;-85
2021/10/29 01:02:18;;;;;;;0.55;0.30;;;;;;;;;;5094158;28;20487;-85
2021/10/29 01:04:43;;;;;;;0.00;0.00;;;;;;;;;;5094255;28;20095;-85
2021/10/29 01:07:08;;;;;;;0.22;0.22;;;;;;;;;;5094292;28;20380;-86
2021/10/29 01:09:34;;;;;;;0.00;0.00;;;;;;;;;;5093795;28;20440;-85
2021/10/29 01:11:59;;;;;;;0.05;0.05;;;;;;;;;;5093797;28;20045;-85
2021/10/29 01:14:25;;;;;;;0.10;0.10;;;;;;;;;;5093946;28;20038;-86
2021/10/29 01:16:50;;;;;;;0.00;0.00;;;;;;;;;;5093819;28;20036;-86
2021/10/29 01:19:15;;;;;;;0.00;0.00;;;;;;;;;;5090111;28;20452;-85
2021/10/29 01:21:40;;;;;;;0.10;0.10;;;;;;;;;;5093839;28;20035;-85
2021/10/29 01:24:07;;;;;;;0.30;0.30;;;;;;;;;;5093783;28;20020;-85
2021/10/29 01:26:33;;;;;;;0.05;0.05;;;;;;;;;;5093826;28;20035;-85
2021/10/29 01:28:58;;;;;;;0.00;0.00;;;;;;;;;;5093810;28;20036;-85
2021/10/29 01:31:24;;;;;;;0.00;0.00;;;;;;;;;;5093492;28;20122;-85
2021/10/29 01:33:49;;;;;;;0.00;0.00;;;;;;;;;;5093726;28;20035;-86
2021/10/29 01:36:14;;;;;;;0.00;0.00;;;;;;;;;;5093792;28;20097;-86
2021/10/29 01:38:41;;;;;;;0.00;0.00;;;;;;;;;;5093958;28;20020;-86
2021/10/29 01:41:07;;;;;;;0.38;0.38;;;;;;;;;;5093632;28;20026;-86
2021/10/29 01:43:39;;;;;;;0.43;0.40;;;;;;;;;;5093910;28;20028;-86
2021/10/29 01:46:04;;;;;;;0.70;0.70;;;;;;;;;;5093211;28;20519;-86
2021/10/29 01:48:29;;;;;;;2.47;1.08;;;;;;;;;;5093623;28;20066;-87
2021/10/29 01:50:55;;;;;;;0.35;0.35;;;;;;;;;;5093359;28;20028;-86
2021/10/29 01:53:21;;;;;;;1.85;0.60;;;;;;;;;;5093519;28;20016;-86
2021/10/29 01:55:46;;;;;;;0.10;0.10;;;;;;;;;;5093520;28;20134;-86
2021/10/29 01:58:12;;;;;;;0.80;0.80;;;;;;;;;;5096424;28;20451;-86
2021/10/29 02:00:37;;;;;;;1.27;0.25;;;;;;;;;;5097441;28;20017;-86
2021/10/29 02:03:02;;;;;;;0.00;0.00;;;;;;;;;;5097506;28;20020;-86
2021/10/29 02:05:27;;;;;;;0.00;0.00;;;;;;;;;;5097487;28;20020;-85
2021/10/29 02:07:53;;;;;;;0.20;0.20;;;;;;;;;;5096123;28;20372;-86
2021/10/29 02:10:18;;;;;;;0.00;0.00;;;;;;;;;;5097614;28;20024;-86
2021/10/29 02:12:43;;;;;;;0.13;0.13;;;;;;;;;;5097087;28;20038;-86
2021/10/29 02:15:09;;;;;;;0.10;0.10;;;;;;;;;;5097118;28;20020;-86
2021/10/29 02:17:34;;;;;;;0.00;0.00;;;;;;;;;;5097673;28;20024;-86
2021/10/29 02:19:59;;;;;;;0.40;0.38;;;;;;;;;;5097212;28;20043;-86
2021/10/29 02:22:25;;;;;;;1.10;1.02;;;;;;;;;;5097218;28;20023;-86
2021/10/29 02:24:50;;;;;;;0.25;0.25;;;;;;;;;;5097283;28;20034;-85
2021/10/29 02:27:16;;;;;;;0.20;0.20;;;;;;;;;;5097073;28;20036;-85
2021/10/29 02:29:41;;;;;;;0.10;0.10;;;;;;;;;;5097021;28;20054;-86
2021/10/29 02:32:06;;;;;;;0.32;0.32;;;;;;;;;;5097048;28;20421;-86
2021/10/29 02:34:32;;;;;;;0.55;0.55;;;;;;;;;;5095456;28;20082;-85
2021/10/29 02:36:57;;;;;;;0.30;0.28;;;;;;;;;;5096898;28;20473;-86
2021/10/29 02:39:22;;;;;;;0.00;0.00;;;;;;;;;;5096918;28;20023;-85
2021/10/29 02:41:48;;;;;;;0.30;0.30;;;;;;;;;;5096876;28;20035;-86
2021/10/29 02:44:13;;;;;;;1.55;1.45;;;;;;;;;;5096478;28;20024;-86
2021/10/29 02:46:38;;;;;;;0.20;0.20;;;;;;;;;;5096550;28;20020;-85
2021/10/29 02:49:04;;;;;;;0.10;0.10;;;;;;;;;;5096703;28;20036;-85
2021/10/29 02:51:30;;;;;;;0.52;0.32;;;;;;;;;;5096365;28;20023;-86
2021/10/29 02:53:56;;;;;;;0.40;0.40;;;;;;;;;;5096555;28;20016;-85
2021/10/29 02:56:21;;;;;;;0.13;0.10;;;;;;;;;;5096729;28;20120;-85
2021/10/29 02:58:46;;;;;;;0.50;0.50;;;;;;;;;;5096246;28;20031;-86
2021/10/29 03:01:11;;;;;;;0.08;0.08;;;;;;;;;;5096734;28;20046;-85
2021/10/29 03:03:37;;;;;;;0.00;0.00;;;;;;;;;;5096476;28;20040;-85
2021/10/29 03:06:02;;;;;;;0.20;0.20;;;;;;;;;;5095181;28;20038;-86
2021/10/29 03:08:28;;;;;;;0.38;0.38;;;;;;;;;;5095686;28;20050;-85
2021/10/29 03:10:54;;;;;;;0.98;0.57;;;;;;;;;;5095907;28;20036;-85
2021/10/29 03:13:20;;;;;;;0.10;0.10;;;;;;;;;;5096244;28;20020;-85
2021/10/29 03:15:47;;;;;;;0.65;0.65;;;;;;;;;;5096184;28;20023;-84
2021/10/29 03:18:12;;;;;;;0.25;0.25;;;;;;;;;;5096131;28;20043;-85
2021/10/29 03:20:37;;;;;;;0.00;0.00;;;;;;;;;;5095790;28;20024;-85
2021/10/29 03:23:03;;;;;;;0.00;0.00;;;;;;;;;;5096064;28;20035;-85
2021/10/29 03:25:28;;;;;;;0.20;0.20;;;;;;;;;;5095630;28;20040;-85
2021/10/29 03:27:53;;;;;;;0.30;0.30;;;;;;;;;;5095831;28;20085;-85
2021/10/29 03:30:20;;;;;;;0.00;0.00;;;;;;;;;;5096068;28;20411;-85
2021/10/29 03:32:45;;;;;;;0.20;0.20;;;;;;;;;;5095880;28;20032;-84
2021/10/29 03:35:11;;;;;;;8.20;2.35;;;;;;;;;;5095590;28;20389;-85
2021/10/29 03:45:23;;;;;;;0.10;0.10;;;;;;;;;;5095603;28;20032;-85
2021/10/29 03:48:00;;;;;;;0.75;0.47;;;;;;;;;;5095621;28;20027;-86
2021/10/29 03:50:28;;;;;;;0.03;0.03;;;;;;;;;;5095592;28;20095;-86
2021/10/29 03:53:23;;;;;;;0.45;0.38;;;;;;;;;;5095375;28;20038;-85
2021/10/29 03:55:48;;;;;;;0.38;0.38;;;;;;;;;;5095268;28;20035;-85
2021/10/29 03:58:13;;;;;;;6.13;0.47;;;;;;;;;;5095266;28;20432;-85
2021/10/29 04:00:39;;;;;;;0.10;0.10;;;;;;;;;;5095338;28;20031;-86
2021/10/29 04:03:04;;;;;;;0.20;0.20;;;;;;;;;;5095257;28;20051;-86
2021/10/29 04:05:31;;;;;;;1.10;1.00;;;;;;;;;;5095174;28;20032;-85
2021/10/29 04:07:56;;;;;;;0.30;0.30;;;;;;;;;;5095014;28;20019;-85
2021/10/29 04:10:25;;;;;;;0.03;0.03;;;;;;;;;;5094946;28;20479;-86
2021/10/29 04:12:51;;;;;;;0.30;0.30;;;;;;;;;;5095062;28;20032;-86
2021/10/29 04:15:17;;;;;;;0.10;0.10;;;;;;;;;;5094998;28;20024;-86
2021/10/29 04:17:42;;;;;;;0.55;0.43;;;;;;;;;;5095106;28;20026;-86
2021/10/29 04:20:07;;;;;;;0.43;0.43;;;;;;;;;;5093726;28;20494;-84
2021/10/29 04:22:33;;;;;;;0.77;0.55;;;;;;;;;;5094849;28;20020;-85
2021/10/29 04:24:58;;;;;;;0.00;0.00;;;;;;;;;;5094825;28;20032;-85
2021/10/29 04:27:30;;;;;;;0.43;0.30;;;;;;;;;;5094771;28;20032;-85
2021/10/29 04:29:55;;;;;;;0.43;0.43;;;;;;;;;;5094717;28;20070;-84
2021/10/29 04:32:20;;;;;;;0.10;0.10;;;;;;;;;;5094735;28;20024;-85
2021/10/29 04:34:46;;;;;;;7.70;0.73;;;;;;;;;;5094508;28;20492;-85
2021/10/29 04:37:11;;;;;;;0.00;0.00;;;;;;;;;;5094532;28;20747;-86
2021/10/29 04:39:37;;;;;;;0.22;0.22;;;;;;;;;;5094651;28;20388;-86
2021/10/29 04:42:02;;;;;;;0.00;0.00;;;;;;;;;;5093389;28;20082;-86
2021/10/29 04:44:27;;;;;;;0.32;0.32;;;;;;;;;;5094482;28;20474;-86
2021/10/29 04:46:53;;;;;;;7.03;1.23;;;;;;;;;;5094429;28;20020;-85
2021/10/29 04:49:18;;;;;;;0.10;0.10;;;;;;;;;;5094477;28;20177;-85
2021/10/29 04:51:43;;;;;;;2.30;0.82;;;;;;;;;;5094314;28;20028;-85
2021/10/29 04:54:09;;;;;;;2.97;1.70;;;;;;;;;;5094358;28;20027;-85
2021/10/29 04:56:34;;;;;;;6.85;1.05;;;;;;;;;;5094305;28;20468;-85
2021/10/29 04:58:59;;;;;;;2.45;1.63;;;;;;;;;;5094175;28;20028;-86
2021/10/29 05:01:25;;;;;;;0.80;0.80;;;;;;;;;;5094016;28;20054;-85
2021/10/29 05:03:50;;;;;;;0.32;0.32;;;;;;;;;;5094141;28;20067;-85
2021/10/29 05:06:15;;;;;;;1.58;1.45;;;;;;;;;;5094090;28;20042;-85
2021/10/29 05:08:41;;;;;;;0.95;0.95;;;;;;;;;;5094233;28;20366;-85
2021/10/29 05:11:06;;;;;;;0.95;0.95;;;;;;;;;;5094045;28;20032;-84
2021/10/29 05:13:32;;;;;;;0.10;0.10;;;;;;;;;;5094018;28;20020;-86
2021/10/29 05:15:57;;;;;;;1.55;1.25;;;;;;;;;;5093540;28;20036;-85
2021/10/29 05:18:22;;;;;;;0.10;0.10;;;;;;;;;;5093903;28;20077;-86
2021/10/29 05:20:48;;;;;;;0.40;0.40;;;;;;;;;;5092665;28;20337;-85
2021/10/29 05:23:13;;;;;;;10.30;0.70;;;;;;;;;;5093541;28;20456;-86
2021/10/29 05:25:39;;;;;;;0.20;0.20;;;;;;;;;;5093854;28;20054;-85
2021/10/29 05:28:04;;;;;;;1.95;1.13;;;;;;;;;;5093778;28;20062;-85
2021/10/29 05:30:30;;;;;;;0.50;0.43;;;;;;;;;;5093711;28;20024;-85
2021/10/29 05:32:55;;;;;;;0.20;0.20;;;;;;;;;;5093521;28;20491;-84
2021/10/29 05:35:20;;;;;;;1.00;0.65;;;;;;;;;;5093523;28;20083;-85
2021/10/29 05:37:45;;;;;;;1.65;1.55;;;;;;;;;;5093759;28;20427;-85
2021/10/29 05:40:11;;;;;;;0.35;0.32;;;;;;;;;;5093701;28;20125;-86
2021/10/29 05:42:36;;;;;;;1.13;0.45;;;;;;;;;;5093344;28;20024;-85
2021/10/29 05:45:06;;;;;;;0.80;0.80;;;;;;;;;;5093765;28;20020;-85
2021/10/29 05:47:32;;;;;;;0.20;0.20;;;;;;;;;;5093510;28;20036;-85
2021/10/29 05:49:58;;;;;;;1.67;1.25;;;;;;;;;;5093277;28;20381;-85
2021/10/29 05:52:25;;;;;;;7.07;2.03;;;;;;;;;;5093601;28;20065;-85
2021/10/29 05:57:19;;;;;;;1.00;0.88;;;;;;;;;;5093487;28;20028;-84
2021/10/29 05:59:44;;;;;;;5.07;2.08;;;;;;;;;;5093458;28;20024;-85
2021/10/29 06:02:09;;;;;;;1.30;1.20;;;;;;;;;;5093483;28;20028;-84
2021/10/29 06:04:34;;;;;;;0.10;0.10;;;;;;;;;;5093658;28;20020;-85
2021/10/29 06:07:00;;;;;;;0.57;0.57;;;;;;;;;;5093468;28;20024;-85
2021/10/29 06:09:26;;;;;;;1.75;0.60;;;;;;;;;;5093489;28;20111;-85
2021/10/29 06:11:52;;;;;;;2.10;0.75;;;;;;;;;;5093364;28;20013;-85
2021/10/29 06:14:17;;;;;;;0.00;0.00;;;;;;;;;;5093460;28;20039;-84
2021/10/29 06:16:42;;;;;;;2.92;0.95;;;;;;;;;;5093168;28;20040;-85
2021/10/29 06:19:08;;;;;;;0.00;0.00;;;;;;;;;;5093521;28;20107;-84
2021/10/29 06:21:39;;;;;;;0.85;0.63;;;;;;;;;;5093304;28;20514;-84
2021/10/29 06:24:10;;;;;;;0.00;0.00;;;;;;;;;;5093024;28;20439;-84
2021/10/29 06:26:43;;;;;;;0.10;0.10;;;;;;;;;;5093289;28;20099;-84
2021/10/29 06:29:09;;;;;;;0.10;0.10;;;;;;;;;;5093305;28;20028;-84
2021/10/29 06:31:34;;;;;;;0.55;0.55;;;;;;;;;;5093108;28;20364;-85
2021/10/29 06:33:59;;;;;;;0.30;0.30;;;;;;;;;;5093253;28;20024;-85
2021/10/29 06:36:25;;;;;;;0.98;0.75;;;;;;;;;;5093117;28;20189;-85
2021/10/29 06:38:50;;;;;;;0.52;0.47;;;;;;;;;;5093025;28;20169;-85
2021/10/29 06:41:15;;;;;;;0.10;0.10;;;;;;;;;;5093152;28;20024;-85
2021/10/29 06:43:46;;;;;;;0.00;0.00;;;;;;;;;;5094740;28;20036;-85
2021/10/29 06:59:50;;;;;;;0.80;0.80;;;;;;;;;;5095989;28;20137;-84
2021/10/29 07:40:15;;;;;;;2.53;1.25;;;;;;;;;;5095501;28;20106;-86
2021/10/29 07:42:58;;;;;;;0.52;0.47;;;;;;;;;;5095602;28;20410;-86
2021/10/29 07:45:26;;;;;;;3.03;1.20;;;;;;;;;;5095587;28;20028;-85
2021/10/29 07:47:52;;;;;;;1.38;1.27;;;;;;;;;;5095484;28;20399;-86
2021/10/29 07:50:18;;;;;;;16.45;1.10;;;;;;;;;;5094369;28;20032;-86
2021/10/29 07:52:44;;;;;;;0.10;0.10;;;;;;;;;;5095367;28;20073;-85
2021/10/29 07:55:11;;;;;;;1.10;1.00;;;;;;;;;;5095758;28;20026;-86
2021/10/29 07:57:37;;;;;;;0.10;0.10;;;;;;;;;;5093517;28;20063;-86
2021/10/29 08:00:04;;;;;;;2.28;1.00;;;;;;;;;;5092718;28;20023;-86
2021/10/29 08:02:30;;;;;;;2.83;1.40;;;;;;;;;;5095092;28;20105;-87
2021/10/29 08:04:56;;;;;;;0.65;0.30;;;;;;;;;;5095158;28;20028;-85
2021/10/29 08:07:21;;;;;;;0.90;0.63;;;;;;;;;;5094670;28;20024;-86
2021/10/29 08:09:46;;;;;;;1.98;1.08;;;;;;;;;;5094970;28;20100;-85
2021/10/29 08:12:12;;;;;;;0.28;0.28;;;;;;;;;;5095094;28;20042;-85
2021/10/29 08:14:38;;;;;;;0.00;0.00;;;;;;;;;;5092638;28;20069;-85
2021/10/29 08:17:04;;;;;;;0.00;0.00;;;;;;;;;;5092320;28;20032;-86
2021/10/29 08:19:33;;;;;;;0.00;0.00;;;;;;;;;;5092077;28;20121;-85
2021/10/29 08:22:02;;;;;;;0.10;0.10;;;;;;;;;;5077785;28;20448;-83
2021/10/29 08:24:28;;;;;;;0.45;0.45;;;;;;;;;;5071415;28;20060;-87
2021/10/29 08:26:54;;;;;;;0.28;0.28;;;;;;;;;;5070237;28;20129;-85
2021/10/29 08:29:20;;;;;;;0.00;0.00;;;;;;;;;;5071025;28;20021;-85
2021/10/29 08:31:46;;;;;;;0.00;0.00;;;;;;;;;;5078875;28;20016;-84
2021/10/29 08:34:12;;;;;;;0.00;0.00;;;;;;;;;;5091216;28;20028;-85
2021/10/29 08:36:39;;;;;;;0.10;0.10;;;;;;;;;;5090778;28;20052;-84
2021/10/29 08:39:07;;;;;;;0.00;0.00;;;;;;;;;;5091673;28;20030;-84
2021/10/29 08:41:33;;;;;;;0.00;0.00;;;;;;;;;;5084694;28;20028;-85
2021/10/29 08:43:59;;;;;;;1.75;1.35;;;;;;;;;;5091902;28;20039;-86
2021/10/29 08:46:30;;;;;;;0.00;0.00;;;;;;;;;;5091785;28;20375;-85
2021/10/29 08:48:57;;;;;;;0.00;0.00;;;;;;;;;;5091373;28;20028;-85
2021/10/29 08:51:22;;;;;;;0.00;0.00;;;;;;;;;;5088933;28;20026;-85
2021/10/29 08:53:47;;;;;;;0.10;0.10;;;;;;;;;;5091799;28;20099;-84
2021/10/29 08:56:13;;;;;;;0.00;0.00;;;;;;;;;;5090952;28;20031;-84
2021/10/29 08:58:57;;;;;;;0.00;0.00;;;;;;;;;;5091621;28;20012;-84
2021/10/29 09:01:22;;;;;;;0.45;0.45;;;;;;;;;;5091306;28;20032;-84
2021/10/29 09:03:49;;;;;;;0.00;0.00;;;;;;;;;;5091198;28;20036;-85
2021/10/29 09:11:44;;;;;;;5.57;0.98;;;;;;;;;;5090350;28;20503;-84
2021/10/29 09:17:24;;;;;;;0.00;0.00;;;;;;;;;;5089522;28;20051;-89
2021/10/29 09:33:53;;;;;;;0.00;0.00;;;;;;;;;;5089853;28;20074;-85
2021/10/29 09:36:33;;;;;;;0.00;0.00;;;;;;;;;;5089548;28;20052;-85
2021/10/29 09:39:04;;;;;;;0.00;0.00;;;;;;;;;;5090415;28;20032;-85
2021/10/29 09:41:29;;;;;;;0.35;0.35;;;;;;;;;;5089728;28;20103;-85
2021/10/29 09:43:59;;;;;;;0.60;0.15;;;;;;;;;;5088353;28;20154;-84
2021/10/29 09:46:28;;;;;;;0.00;0.00;;;;;;;;;;5089465;28;20030;-84
2021/10/29 09:49:02;;;;;;;0.00;0.00;;;;;;;;;;5089625;28;20028;-84
2021/10/29 09:51:32;;;;;;;0.28;0.28;;;;;;;;;;5090759;28;20039;-85
2021/10/29 09:58:58;;;;;;;0.00;0.00;;;;;;;;;;5090785;28;20376;-84
2021/10/29 10:01:30;;;;;;;0.00;0.00;;;;;;;;;;5090483;28;20431;-84
2021/10/29 10:03:59;;;;;;;0.00;0.00;;;;;;;;;;5090878;28;20058;-83
2021/10/29 10:06:25;;;;;;;0.10;0.10;;;;;;;;;;5090850;28;20102;-84
2021/10/29 10:08:55;;;;;;;0.00;0.00;;;;;;;;;;5089201;28;20082;-84
2021/10/29 10:11:21;;;;;;;0.10;0.10;;;;;;;;;;5089388;28;20028;-85
2021/10/29 10:13:48;;;;;;;0.05;0.05;;;;;;;;;;5089713;28;20115;-84
2021/10/29 10:16:14;;;;;;;0.10;0.10;;;;;;;;;;5089976;28;20040;-84
2021/10/29 10:18:40;;;;;;;0.00;0.00;;;;;;;;;;5091783;28;20126;-84
2021/10/29 10:21:10;;;;;;;0.00;0.00;;;;;;;;;;5094400;28;20032;-83
2021/10/29 10:23:39;;;;;;;0.00;0.00;;;;;;;;;;5093130;28;20654;-84
2021/10/29 10:47:52;;;;;;;0.00;0.00;;;;;;;;;;5093716;28;20481;-84
2021/10/29 10:50:24;;;;;;;0.00;0.00;;;;;;;;;;5094401;28;20039;-84
2021/10/29 10:53:01;;;;;;;0.00;0.00;;;;;;;;;;5093711;28;20499;-83
2021/10/29 10:55:31;;;;;;;0.10;0.10;;;;;;;;;;5094060;28;20031;-83
2021/10/29 10:58:09;;;;;;;0.10;0.10;;;;;;;;;;5094111;28;20123;-83
2021/10/29 11:00:50;;;;;;;0.00;0.00;;;;;;;;;;5092234;28;20028;-87
2021/10/29 11:06:38;;;;;;;0.00;0.00;;;;;;;;;;5092471;28;20391;-83
2021/10/29 11:11:55;;;;;;;0.20;0.20;;;;;;;;;;5093221;28;20077;-84
2021/10/29 11:14:32;;;;;;;0.00;0.00;;;;;;;;;;5093762;28;20042;-84
2021/10/29 11:16:57;;;;;;;0.00;0.00;;;;;;;;;;5093169;28;20395;-84
2021/10/29 11:19:32;;;;;;;0.00;0.00;;;;;;;;;;5093234;28;20028;-84
2021/10/29 11:21:57;;;;;;;0.30;0.30;;;;;;;;;;5091232;28;20028;-84
2021/10/29 11:24:31;;;;;;;0.00;0.00;;;;;;;;;;5092808;28;20039;-84
2021/10/29 11:27:04;;;;;;;0.00;0.00;;;;;;;;;;5092808;28;20020;-84
2021/10/29 11:29:29;;;;;;;0.00;0.00;;;;;;;;;;5092282;28;20035;-84
2021/10/29 11:31:55;;;;;;;2.92;1.55;;;;;;;;;;5093423;28;20036;-83
2021/10/29 11:34:22;;;;;;;0.47;0.20;;;;;;;;;;5085205;28;20372;-84
2021/10/29 11:36:50;;;;;;;0.22;0.22;;;;;;;;;;5072580;28;20056;-89
2021/10/29 11:39:18;;;;;;;0.00;0.00;;;;;;;;;;5080846;28;20032;-85
2021/10/29 11:41:44;;;;;;;0.00;0.00;;;;;;;;;;5091665;28;20069;-84
2021/10/29 11:44:12;;;;;;;0.00;0.00;;;;;;;;;;5092284;28;20372;-84
2021/10/29 11:46:38;;;;;;;0.00;0.00;;;;;;;;;;5091832;28;20161;-85
2021/10/29 11:49:30;;;;;;;0.00;0.00;;;;;;;;;;5089503;28;20531;-84
2021/10/29 11:51:56;;;;;;;0.00;0.00;;;;;;;;;;5084987;28;20021;-84
2021/10/29 11:54:26;;;;;;;0.00;0.00;;;;;;;;;;5080280;28;20122;-85
2021/10/29 12:07:23;;;;;;;0.00;0.00;;;;;;;;;;5079727;28;20540;-85
2021/10/29 12:09:50;;;;;;;0.00;0.00;;;;;;;;;;5084161;28;20067;-86
2021/10/29 12:12:21;;;;;;;0.00;0.00;;;;;;;;;;5089798;28;20032;-84
2021/10/29 12:14:48;;;;;;;0.38;0.38;;;;;;;;;;5085724;28;20096;-84
2021/10/29 12:17:17;;;;;;;0.00;0.00;;;;;;;;;;5082024;28;20041;-84
2021/10/29 12:19:44;;;;;;;0.00;0.00;;;;;;;;;;5083020;28;20024;-84
2021/10/29 12:22:20;;;;;;;0.00;0.00;;;;;;;;;;5083815;28;20035;-84
2021/10/29 12:24:51;;;;;;;0.00;0.00;;;;;;;;;;5083192;28;20540;-86
2021/10/29 12:27:22;;;;;;;0.00;0.00;;;;;;;;;;5080013;28;20020;-86
2021/10/29 12:30:08;;;;;;;0.00;0.00;;;;;;;;;;5073124;28;20033;-85
2021/10/29 12:33:19;;;;;;;0.00;0.00;;;;;;;;;;5091595;28;20472;-84
2021/10/29 13:03:02;;;;;;;0.00;0.00;;;;;;;;;;5092007;28;20035;-85
2021/10/29 13:05:27;;;;;;;0.10;0.10;;;;;;;;;;5092042;28;20028;-88
2021/10/29 13:07:53;;;;;;;0.00;0.00;;;;;;;;;;5092007;28;20035;-84
2021/10/29 13:10:19;;;;;;;0.05;0.05;;;;;;;;;;5091909;28;20908;-84
2021/10/29 13:12:55;;;;;;;0.00;0.00;;;;;;;;;;5091998;28;20034;-84
2021/10/29 13:15:21;;;;;;;3.65;0.75;;;;;;;;;;5092089;28;20043;-84
2021/10/29 13:17:57;;;;;;;0.30;0.30;;;;;;;;;;5092054;28;20036;-83
2021/10/29 13:26:29;;;;;;;0.10;0.10;;;;;;;;;;5092059;28;20097;-84
2021/10/29 13:52:41;;;;;;;0.65;0.65;;;;;;;;;;5092470;28;20047;-84
2021/10/29 13:55:32;;;;;;;0.00;0.00;;;;;;;;;;5095774;28;20016;-84
2021/10/29 14:35:03;;;;;;;0.10;0.10;;;;;;;;;;5083360;28;20045;-85
2021/10/29 14:45:13;;;;;;;0.03;0.03;;;;;;;;;;5082275;28;20028;-86
2021/10/29 15:27:41;;;;;;;0.25;0.25;;;;;;;;;;5078872;28;20111;-84
2021/10/29 15:33:00;;;;;;;0.20;0.20;;;;;;;;;;5078720;28;20532;-83
2021/10/29 15:46:24;;;;;;;0.15;0.15;;;;;;;;;;5093046;28;20036;-84
2021/10/29 15:51:21;;;;;;;0.00;0.00;;;;;;;;;;5093349;28;20036;-84
2021/10/29 15:53:46;;;;;;;0.05;0.05;;;;;;;;;;5093360;28;20063;-83
2021/10/29 15:58:59;;;;;;;0.20;0.20;;;;;;;;;;5093532;28;20047;-83
2021/10/29 16:19:34;;;;;;;0.10;0.10;;;;;;;;;;5092066;28;20028;-83
2021/10/29 16:22:04;;;;;;;0.00;0.00;;;;;;;;;;5093005;28;20039;-83
2021/10/29 16:24:29;;;;;;;0.00;0.00;;;;;;;;;;5092460;28;20016;-83
2021/10/29 16:26:56;;;;;;;2.75;2.08;;;;;;;;;;5091558;28;20016;-83
2021/10/29 16:29:25;;;;;;;0.10;0.10;;;;;;;;;;5092124;28;20597;-83
2021/10/29 16:31:50;;;;;;;0.47;0.47;;;;;;;;;;5092219;28;20859;-84
2021/10/29 16:34:16;;;;;;;0.30;0.30;;;;;;;;;;5090643;28;20103;-83
2021/10/29 16:36:42;;;;;;;1.25;0.35;;;;;;;;;;5090855;28;20051;-83
2021/10/29 16:39:07;;;;;;;0.65;0.65;;;;;;;;;;5093048;28;20426;-84
2021/10/29 16:41:33;;;;;;;1.20;0.77;;;;;;;;;;5093353;28;20025;-84
2021/10/29 16:43:58;;;;;;;0.00;0.00;;;;;;;;;;5093058;28;20522;-84
2021/10/29 16:46:23;;;;;;;0.00;0.00;;;;;;;;;;5092244;28;20058;-83
2021/10/29 16:48:49;;;;;;;0.13;0.13;;;;;;;;;;5092285;28;20080;-84
2021/10/29 16:51:14;;;;;;;0.10;0.10;;;;;;;;;;5092994;28;20038;-83
2021/10/29 16:53:40;;;;;;;0.30;0.30;;;;;;;;;;5093220;28;20073;-84
2021/10/29 16:56:05;;;;;;;0.35;0.35;;;;;;;;;;5092371;28;20073;-84
2021/10/29 16:58:31;;;;;;;0.47;0.47;;;;;;;;;;5091626;28;20040;-84
2021/10/29 17:00:56;;;;;;;1.25;1.15;;;;;;;;;;5092538;28;20475;-84
2021/10/29 17:03:23;;;;;;;1.17;1.05;;;;;;;;;;5093313;28;20019;-83
2021/10/29 17:05:48;;;;;;;3.97;1.88;;;;;;;;;;5092211;28;20028;-83
2021/10/29 17:08:15;;;;;;;5.15;4.63;;;;;;;;;;5092906;28;20111;-84
2021/10/29 17:10:41;;;;;;;2.42;1.83;;;;;;;;;;5092697;28;20028;-83
2021/10/29 17:13:06;;;;;;;4.22;2.05;;;;;;;;;;5092683;28;20077;-83
2021/10/29 17:15:33;;;;;;;3.95;3.13;;;;;;;;;;5091766;28;20031;-84
2021/10/29 17:17:59;;;;;;;4.35;3.58;;;;;;;;;;5092481;28;20103;-83
2021/10/29 17:20:24;;;;;;;1.52;1.38;;;;;;;;;;5091806;28;20107;-84
2021/10/29 17:22:50;;;;;;;1.23;1.13;;;;;;;;;;5091911;28;20024;-83
2021/10/29 17:25:15;;;;;;;1.67;1.08;;;;;;;;;;5090932;28;20460;-83
2021/10/29 17:27:41;;;;;;;0.20;0.20;;;;;;;;;;5091219;28;20039;-84
2021/10/29 17:30:07;;;;;;;0.35;0.35;;;;;;;;;;5092642;28;20186;-84
2021/10/29 17:32:33;;;;;;;0.43;0.40;;;;;;;;;;5091469;28;20020;-84
2021/10/29 17:34:59;;;;;;;0.25;0.25;;;;;;;;;;5091611;28;20087;-83
2021/10/29 17:37:30;;;;;;;0.00;0.00;;;;;;;;;;5086048;28;20083;-84
2021/10/29 17:39:55;;;;;;;0.13;0.13;;;;;;;;;;5089890;28;20388;-84
2021/10/29 17:42:21;;;;;;;0.00;0.00;;;;;;;;;;5091622;28;20032;-83
2021/10/29 17:44:46;;;;;;;0.00;0.00;;;;;;;;;;5092342;28;20034;-83
2021/10/29 17:47:11;;;;;;;16.17;0.65;;;;;;;;;;5091735;28;20032;-84
2021/10/29 17:49:38;;;;;;;2.92;0.57;;;;;;;;;;5091602;28;20024;-83
2021/10/29 17:52:03;;;;;;;0.45;0.45;;;;;;;;;;5092933;28;20052;-84
2021/10/29 17:54:36;;;;;;;0.10;0.10;;;;;;;;;;5091953;28;20056;-83
2021/10/29 17:57:02;;;;;;;1.50;1.40;;;;;;;;;;5092657;28;20083;-84
2021/10/29 17:59:28;;;;;;;0.10;0.10;;;;;;;;;;5092911;28;20573;-83
2021/10/29 18:01:53;;;;;;;0.52;0.52;;;;;;;;;;5093359;28;20046;-83
2021/10/29 18:04:18;;;;;;;1.60;1.15;;;;;;;;;;5093531;28;20420;-84
2021/10/29 18:06:43;;;;;;;1.35;1.27;;;;;;;;;;5093391;28;20065;-84
2021/10/29 18:09:09;;;;;;;0.30;0.30;;;;;;;;;;5092206;28;20348;-85
2021/10/29 18:11:36;;;;;;;1.25;0.77;;;;;;;;;;5093465;28;20024;-84
2021/10/29 18:14:01;;;;;;;0.13;0.13;;;;;;;;;;5093503;28;20084;-84
2021/10/29 18:16:27;;;;;;;0.10;0.10;;;;;;;;;;5093261;28;20543;-84
2021/10/29 18:18:57;;;;;;;1.00;1.00;;;;;;;;;;5093340;28;20032;-84
2021/10/29 18:21:22;;;;;;;0.55;0.55;;;;;;;;;;5089776;28;20479;-84
2021/10/29 18:23:52;;;;;;;0.10;0.10;;;;;;;;;;5092034;28;20077;-84
2021/10/29 18:26:18;;;;;;;0.00;0.00;;;;;;;;;;5093327;28;20031;-84
2021/10/29 18:28:44;;;;;;;0.80;0.65;;;;;;;;;;5093216;28;20012;-84
2021/10/29 18:31:11;;;;;;;0.10;0.10;;;;;;;;;;5093265;28;20408;-85
2021/10/29 18:33:36;;;;;;;0.43;0.43;;;;;;;;;;5093199;28;20035;-85
2021/10/29 18:36:02;;;;;;;0.22;0.22;;;;;;;;;;5092643;28;20535;-85
2021/10/29 18:38:27;;;;;;;1.08;1.08;;;;;;;;;;5093192;28;20032;-84
2021/10/29 18:40:52;;;;;;;1.25;0.55;;;;;;;;;;5096451;28;20024;-84
2021/10/29 18:43:18;;;;;;;0.00;0.00;;;;;;;;;;5096856;28;20464;-84
2021/10/29 18:45:43;;;;;;;0.10;0.10;;;;;;;;;;5096789;28;20067;-84
2021/10/29 18:48:08;;;;;;;0.10;0.10;;;;;;;;;;5096544;28;20024;-84
2021/10/29 18:50:34;;;;;;;0.10;0.10;;;;;;;;;;5097148;28;20020;-84
2021/10/29 18:52:59;;;;;;;0.32;0.32;;;;;;;;;;5096832;28;20032;-84
2021/10/29 18:55:24;;;;;;;0.10;0.10;;;;;;;;;;5095342;28;20136;-84
2021/10/29 18:57:50;;;;;;;2.83;0.50;;;;;;;;;;5096613;28;20078;-83
2021/10/29 19:00:16;;;;;;;0.25;0.25;;;;;;;;;;5096565;28;20033;-83
2021/10/29 19:02:41;;;;;;;0.63;0.63;;;;;;;;;;5096460;28;20487;-84
2021/10/29 19:05:06;;;;;;;1.33;1.17;;;;;;;;;;5096469;28;20023;-84
2021/10/29 19:07:32;;;;;;;1.02;0.75;;;;;;;;;;5096432;28;20032;-85
2021/10/29 19:09:57;;;;;;;2.13;2.03;;;;;;;;;;5096594;28;20053;-83
2021/10/29 19:12:22;;;;;;;1.45;0.55;;;;;;;;;;5096396;28;20024;-83
2021/10/29 19:14:48;;;;;;;0.80;0.70;;;;;;;;;;5095995;28;20028;-83
2021/10/29 19:17:13;;;;;;;0.95;0.95;;;;;;;;;;5096172;28;20043;-84
2021/10/29 19:19:38;;;;;;;0.47;0.47;;;;;;;;;;5095775;28;20020;-84
2021/10/29 19:22:04;;;;;;;0.30;0.30;;;;;;;;;;5079719;28;20020;-85
2021/10/29 19:24:29;;;;;;;9.98;2.00;;;;;;;;;;5094547;28;20028;-84
2021/10/29 19:26:55;;;;;;;1.05;1.05;;;;;;;;;;5094622;28;20461;-84
2021/10/29 19:29:21;;;;;;;0.22;0.22;;;;;;;;;;5095879;28;20057;-84
2021/10/29 19:31:46;;;;;;;1.08;1.08;;;;;;;;;;5094356;28;20115;-85
2021/10/29 19:34:12;;;;;;;1.63;1.50;;;;;;;;;;5077791;28;20422;-85
2021/10/29 19:36:44;;;;;;;0.32;0.32;;;;;;;;;;5074761;28;20049;-85
2021/10/29 19:39:55;;;;;;;0.57;0.57;;;;;;;;;;5075000;28;20025;-85
2021/10/29 19:41:58;;;;;;;1.65;1.52;;;;;;;;;;5091835;28;20524;-84
2021/10/29 19:44:23;;;;;;;0.68;0.68;;;;;;;;;;5087225;28;20071;-83
2021/10/29 19:46:48;;;;;;;1.85;1.55;;;;;;;;;;5075257;28;20126;-83
2021/10/29 19:49:14;;;;;;;5.03;3.03;;;;;;;;;;5074376;28;20020;-83